createdAt,value
2018-03-22T00:00:12.056Z,2.90
2018-03-22T00:02:40.324Z,2.90
2018-03-22T00:05:08.564Z,2.90
2018-03-22T00:07:36.038Z,2.90
2018-03-22T00:10:03.531Z,3.00
2018-03-22T00:12:31.021Z,2.90
2018-03-22T00:14:58.518Z,2.90
2018-03-22T00:17:25.991Z,3.00
2018-03-22T00:19:54.228Z,3.00
2018-03-22T00:22:33.676Z,3.00
2018-03-22T00:25:01.157Z,3.00
2018-03-22T00:27:29.387Z,3.10
2018-03-22T00:29:56.888Z,3.10
2018-03-22T00:32:25.134Z,3.10
2018-03-22T00:34:52.595Z,3.10
2018-03-22T00:37:20.066Z,3.10
2018-03-22T00:39:47.531Z,3.10
2018-03-22T00:42:15.797Z,3.20
2018-03-22T00:44:43.283Z,3.20
2018-03-22T00:47:10.759Z,3.20
2018-03-22T00:49:38.234Z,3.30
2018-03-22T00:52:05.734Z,3.30
2018-03-22T00:54:33.190Z,3.30
2018-03-22T00:57:01.413Z,3.40
2018-03-22T00:59:28.892Z,3.40
2018-03-22T01:01:56.348Z,3.50
2018-03-22T01:04:23.802Z,3.50
2018-03-22T01:06:51.296Z,3.60
2018-03-22T01:09:19.531Z,3.60
2018-03-22T01:11:47.027Z,3.60
2018-03-22T01:14:15.279Z,3.70
2018-03-22T01:16:42.756Z,3.70
2018-03-22T01:19:10.988Z,3.70
2018-03-22T01:21:38.470Z,3.70
2018-03-22T01:24:05.938Z,3.70
2018-03-22T01:26:34.166Z,3.70
2018-03-22T01:29:01.654Z,3.70
2018-03-22T01:31:29.116Z,3.60
2018-03-22T01:33:56.588Z,3.60
2018-03-22T01:36:24.856Z,3.60
2018-03-22T01:38:53.087Z,3.60
2018-03-22T01:41:20.543Z,3.60
2018-03-22T01:43:48.047Z,3.70
2018-03-22T01:46:16.274Z,3.70
2018-03-22T01:48:43.734Z,3.70
2018-03-22T01:51:11.221Z,3.70
2018-03-22T01:53:38.684Z,3.70
2018-03-22T01:56:06.188Z,3.70
2018-03-22T01:58:33.647Z,3.70
2018-03-22T02:01:01.114Z,3.70
2018-03-22T02:03:28.608Z,3.70
2018-03-22T02:05:56.068Z,3.70
2018-03-22T02:08:23.643Z,3.70
2018-03-22T02:10:51.950Z,3.70
2018-03-22T02:13:19.399Z,3.70
2018-03-22T02:15:46.867Z,3.70
2018-03-22T02:18:14.368Z,3.70
2018-03-22T02:20:41.841Z,3.70
2018-03-22T02:23:10.073Z,3.70
2018-03-22T02:25:37.554Z,3.60
2018-03-22T02:28:05.014Z,3.70
2018-03-22T02:30:32.483Z,3.60
2018-03-22T02:33:00.748Z,3.60
2018-03-22T02:35:28.214Z,3.60
2018-03-22T02:37:56.443Z,3.60
2018-03-22T02:40:23.916Z,3.60
2018-03-22T02:42:51.434Z,3.60
2018-03-22T02:45:18.871Z,3.60
2018-03-22T02:47:47.115Z,3.60
2018-03-22T02:50:14.601Z,3.60
2018-03-22T02:52:42.826Z,3.60
2018-03-22T02:55:10.301Z,3.60
2018-03-22T02:57:37.771Z,3.60
2018-03-22T03:00:06.018Z,3.60
2018-03-22T03:02:33.487Z,3.60
2018-03-22T03:05:00.967Z,3.60
2018-03-22T03:07:29.203Z,3.60
2018-03-22T03:09:56.679Z,3.60
2018-03-22T03:12:24.139Z,3.60
2018-03-22T03:14:51.624Z,3.60
2018-03-22T03:17:19.091Z,3.60
2018-03-22T03:19:46.563Z,3.60
2018-03-22T03:22:14.050Z,3.60
2018-03-22T03:24:41.519Z,3.60
2018-03-22T03:27:09.002Z,3.60
2018-03-22T03:29:36.483Z,3.60
2018-03-22T03:32:03.947Z,3.60
2018-03-22T03:34:31.439Z,3.60
2018-03-22T03:36:58.904Z,3.60
2018-03-22T03:39:26.398Z,3.70
2018-03-22T03:41:54.618Z,3.60
2018-03-22T03:44:22.087Z,3.60
2018-03-22T03:46:49.759Z,3.60
2018-03-22T03:49:17.228Z,3.50
2018-03-22T03:51:45.438Z,3.50
2018-03-22T03:54:12.942Z,3.50
2018-03-22T03:56:40.407Z,3.50
2018-03-22T03:59:07.876Z,3.50
2018-03-22T04:01:36.132Z,3.50
2018-03-22T04:04:03.586Z,3.50
2018-03-22T04:06:31.059Z,3.50
2018-03-22T04:08:59.576Z,3.60
2018-03-22T04:11:27.045Z,3.50
2018-03-22T04:13:54.511Z,3.60
2018-03-22T04:16:21.988Z,3.60
2018-03-22T04:18:49.455Z,3.60
2018-03-22T04:21:16.927Z,3.60
2018-03-22T04:23:45.171Z,3.60
2018-03-22T04:26:12.651Z,3.60
2018-03-22T04:28:40.122Z,3.60
2018-03-22T04:31:08.471Z,3.60
2018-03-22T04:33:35.934Z,3.60
2018-03-22T04:36:03.418Z,3.60
2018-03-22T04:38:30.893Z,3.60
2018-03-22T04:40:58.357Z,3.50
2018-03-22T04:43:25.847Z,3.60
2018-03-22T04:45:53.332Z,3.60
2018-03-22T04:48:21.575Z,3.60
2018-03-22T04:50:49.064Z,3.60
2018-03-22T04:53:17.298Z,3.60
2018-03-22T04:55:44.760Z,3.60
2018-03-22T04:58:12.267Z,3.70
2018-03-22T05:00:39.738Z,3.70
2018-03-22T05:03:07.215Z,3.60
2018-03-22T05:05:34.712Z,3.70
2018-03-22T05:08:02.967Z,3.70
2018-03-22T05:10:30.424Z,3.70
2018-03-22T05:12:57.907Z,3.70
2018-03-22T05:15:26.150Z,3.70
2018-03-22T05:17:53.625Z,3.70
2018-03-22T05:20:21.118Z,3.70
2018-03-22T05:22:48.576Z,3.70
2018-03-22T05:25:16.043Z,3.70
2018-03-22T05:27:43.663Z,3.60
2018-03-22T05:30:11.894Z,3.50
2018-03-22T05:32:39.366Z,3.50
2018-03-22T05:35:07.032Z,3.50
2018-03-22T05:37:36.011Z,3.40
2018-03-22T05:40:03.476Z,3.40
2018-03-22T05:42:30.978Z,3.40
2018-03-22T05:44:59.206Z,3.40
2018-03-22T05:47:26.675Z,3.40
2018-03-22T05:49:54.247Z,3.30
2018-03-22T05:52:22.627Z,3.30
2018-03-22T05:54:50.863Z,3.20
2018-03-22T05:57:18.353Z,3.20
2018-03-22T05:59:46.595Z,3.10
2018-03-22T06:02:14.057Z,3.10
2018-03-22T06:04:41.543Z,3.10
2018-03-22T06:07:09.798Z,3.00
2018-03-22T06:09:37.263Z,3.00
2018-03-22T06:12:04.757Z,3.00
2018-03-22T06:14:32.218Z,2.90
2018-03-22T06:16:59.718Z,2.90
2018-03-22T06:19:27.183Z,2.90
2018-03-22T06:21:56.158Z,2.80
2018-03-22T06:24:23.645Z,2.80
2018-03-22T06:26:51.922Z,2.80
2018-03-22T06:29:19.394Z,2.80
2018-03-22T06:31:47.651Z,2.80
2018-03-22T06:34:15.899Z,2.80
2018-03-22T06:36:43.395Z,2.80
2018-03-22T06:39:11.638Z,2.90
2018-03-22T06:41:39.110Z,2.80
2018-03-22T06:44:06.616Z,2.80
2018-03-22T06:46:34.091Z,2.90
2018-03-22T06:49:01.571Z,2.90
2018-03-22T06:51:29.263Z,2.80
2018-03-22T06:53:57.497Z,2.70
2018-03-22T06:56:24.963Z,2.70
2018-03-22T06:58:53.232Z,2.80
2018-03-22T07:01:20.707Z,2.70
2018-03-22T07:03:48.179Z,2.80
2018-03-22T07:06:16.437Z,2.80
2018-03-22T07:08:44.687Z,2.70
2018-03-22T07:11:12.224Z,2.70
2018-03-22T07:13:39.718Z,2.70
2018-03-22T07:16:07.188Z,2.80
2018-03-22T07:18:34.678Z,2.80
2018-03-22T07:21:02.186Z,2.80
2018-03-22T07:23:29.757Z,2.80
2018-03-22T07:25:57.249Z,2.80
2018-03-22T07:28:25.491Z,2.80
2018-03-22T07:30:52.954Z,2.80
2018-03-22T07:33:21.226Z,2.80
2018-03-22T07:35:48.703Z,2.80
2018-03-22T07:38:16.170Z,2.90
2018-03-22T07:40:43.698Z,2.80
2018-03-22T07:43:17.514Z,2.90
2018-03-22T07:45:45.770Z,3.00
2018-03-22T07:48:14.006Z,3.00
2018-03-22T07:50:41.474Z,3.00
2018-03-22T07:53:08.966Z,3.00
2018-03-22T07:55:37.207Z,3.10
2018-03-22T07:58:04.714Z,3.20
2018-03-22T08:00:32.949Z,3.10
2018-03-22T08:03:00.433Z,3.10
2018-03-22T08:05:27.927Z,3.20
2018-03-22T08:07:55.408Z,3.10
2018-03-22T08:10:22.887Z,3.20
2018-03-22T08:12:50.378Z,3.20
2018-03-22T08:15:17.852Z,3.20
2018-03-22T08:17:45.322Z,3.30
2018-03-22T08:20:12.818Z,3.30
2018-03-22T08:22:41.070Z,3.30
2018-03-22T08:25:08.529Z,3.30
2018-03-22T08:27:36.018Z,3.30
2018-03-22T08:30:04.276Z,3.40
2018-03-22T08:32:31.762Z,3.40
2018-03-22T08:35:00.027Z,3.40
2018-03-22T08:37:27.490Z,3.40
2018-03-22T08:39:55.725Z,3.50
2018-03-22T08:42:23.207Z,3.50
2018-03-22T08:44:50.675Z,3.50
2018-03-22T08:47:18.927Z,3.50
2018-03-22T08:49:46.404Z,3.50
2018-03-22T08:52:14.639Z,3.50
2018-03-22T08:54:42.130Z,3.50
2018-03-22T08:57:11.107Z,3.60
2018-03-22T08:59:38.577Z,3.60
2018-03-22T09:02:06.062Z,3.60
2018-03-22T09:04:33.514Z,3.60
2018-03-22T09:07:00.979Z,3.60
2018-03-22T09:09:28.472Z,3.70
2018-03-22T09:11:55.945Z,3.70
2018-03-22T09:14:23.459Z,3.70
2018-03-22T09:16:51.659Z,3.70
2018-03-22T09:19:19.118Z,3.80
2018-03-22T09:21:46.616Z,3.80
2018-03-22T09:24:14.857Z,3.90
2018-03-22T09:26:48.095Z,3.90
2018-03-22T09:29:15.518Z,4.00
2018-03-22T09:31:42.986Z,3.90
2018-03-22T09:34:10.471Z,4.00
2018-03-22T09:36:37.936Z,4.10
2018-03-22T09:39:05.395Z,4.20
2018-03-22T09:41:32.895Z,4.20
2018-03-22T09:44:00.351Z,4.30
2018-03-22T09:46:27.822Z,4.40
2018-03-22T09:48:55.328Z,4.40
2018-03-22T09:51:22.787Z,4.50
2018-03-22T09:53:50.249Z,4.50
2018-03-22T09:56:17.738Z,4.60
2018-03-22T09:58:45.208Z,4.70
2018-03-22T10:01:12.667Z,4.60
2018-03-22T10:03:40.920Z,4.60
2018-03-22T10:06:08.404Z,4.60
2018-03-22T10:08:36.674Z,4.60
2018-03-22T10:11:04.133Z,4.60
2018-03-22T10:13:32.360Z,4.70
2018-03-22T10:15:59.846Z,4.70
2018-03-22T10:18:27.326Z,4.80
2018-03-22T10:20:55.547Z,5.00
2018-03-22T10:23:23.097Z,5.00
2018-03-22T10:25:50.581Z,5.00
2018-03-22T10:28:18.066Z,5.00
2018-03-22T10:30:45.547Z,5.00
2018-03-22T10:33:13.008Z,5.00
2018-03-22T10:35:40.486Z,5.10
2018-03-22T10:38:07.978Z,5.10
2018-03-22T10:40:35.455Z,5.10
2018-03-22T10:43:03.688Z,5.20
2018-03-22T10:45:31.171Z,5.20
2018-03-22T10:47:58.639Z,5.30
2018-03-22T10:50:26.898Z,5.40
2018-03-22T10:52:54.363Z,5.40
2018-03-22T10:55:21.923Z,5.40
2018-03-22T10:57:50.176Z,5.50
2018-03-22T11:03:27.198Z,5.40
2018-03-22T11:05:56.317Z,5.40
2018-03-22T11:08:26.378Z,5.40
2018-03-22T11:10:53.866Z,5.50
2018-03-22T11:13:21.334Z,5.50
2018-03-22T11:15:49.563Z,5.60
2018-03-22T11:18:17.043Z,5.60
2018-03-22T11:20:44.523Z,5.60
2018-03-22T11:23:12.752Z,5.70
2018-03-22T11:25:40.358Z,5.70
2018-03-22T11:28:08.587Z,5.70
2018-03-22T11:30:36.054Z,5.70
2018-03-22T11:33:03.551Z,5.80
2018-03-22T11:35:31.782Z,5.80
2018-03-22T11:37:59.243Z,5.80
2018-03-22T11:40:26.774Z,5.90
2018-03-22T11:42:54.230Z,6.00
2018-03-22T11:45:21.696Z,6.00
2018-03-22T11:47:49.188Z,6.00
2018-03-22T11:50:16.666Z,6.00
2018-03-22T11:52:44.911Z,6.00
2018-03-22T11:55:12.416Z,6.00
2018-03-22T11:57:39.888Z,6.10
2018-03-22T12:00:07.351Z,6.10
2018-03-22T12:02:34.845Z,6.20
2018-03-22T12:05:02.324Z,6.30
2018-03-22T12:07:30.562Z,6.20
2018-03-22T12:09:58.040Z,6.10
2018-03-22T12:12:25.556Z,6.20
2018-03-22T12:14:52.990Z,6.30
2018-03-22T12:17:20.691Z,6.30
2018-03-22T12:19:48.142Z,6.30
2018-03-22T12:22:15.611Z,6.30
2018-03-22T12:24:43.090Z,6.40
2018-03-22T12:27:11.318Z,6.50
2018-03-22T12:29:38.786Z,6.50
2018-03-22T12:32:06.475Z,6.50
2018-03-22T12:34:34.706Z,6.50
2018-03-22T12:37:02.179Z,6.50
2018-03-22T12:39:29.670Z,6.60
2018-03-22T12:41:57.895Z,6.60
2018-03-22T12:44:25.367Z,6.60
2018-03-22T12:46:52.885Z,6.70
2018-03-22T12:49:20.344Z,6.70
2018-03-22T12:51:47.819Z,6.80
2018-03-22T12:54:15.379Z,6.90
2018-03-22T12:56:42.863Z,7.00
2018-03-22T12:59:11.096Z,7.30
2018-03-22T13:01:38.591Z,7.30
2018-03-22T13:04:06.055Z,7.50
2018-03-22T13:06:33.571Z,7.50
2018-03-22T13:09:01.047Z,7.50
2018-03-22T13:11:28.510Z,7.50
2018-03-22T13:13:56.012Z,8.00
2018-03-22T13:16:24.238Z,9.20
2018-03-22T13:18:51.708Z,9.10
2018-03-22T13:21:19.187Z,10.20
2018-03-22T13:23:47.440Z,10.50
2018-03-22T13:26:14.920Z,10.50
2018-03-22T13:28:43.159Z,9.40
2018-03-22T13:31:10.905Z,9.40
2018-03-22T13:33:38.382Z,9.10
2018-03-22T13:36:05.848Z,8.80
2018-03-22T13:38:33.313Z,8.60
2018-03-22T13:41:00.803Z,8.30
2018-03-22T13:43:29.039Z,8.00
2018-03-22T13:45:56.496Z,8.00
2018-03-22T13:48:23.988Z,8.00
2018-03-22T13:50:52.222Z,8.00
2018-03-22T13:53:19.707Z,7.90
2018-03-22T13:55:47.950Z,7.80
2018-03-22T13:58:15.406Z,7.80
2018-03-22T14:00:42.894Z,7.90
2018-03-22T14:03:11.139Z,7.80
2018-03-22T14:05:38.610Z,7.80
2018-03-22T14:08:06.094Z,7.80
2018-03-22T14:10:35.558Z,7.70
2018-03-22T14:13:03.033Z,7.70
2018-03-22T14:15:30.519Z,7.60
2018-03-22T14:17:57.984Z,7.70
2018-03-22T14:20:25.554Z,7.70
2018-03-22T14:22:53.039Z,7.60
2018-03-22T14:25:20.501Z,7.60
2018-03-22T14:27:47.961Z,7.50
2018-03-22T14:30:15.477Z,7.50
2018-03-22T14:32:42.927Z,7.50
2018-03-22T14:35:10.418Z,7.40
2018-03-22T14:37:37.948Z,7.40
2018-03-22T14:40:05.404Z,7.50
2018-03-22T14:42:32.895Z,7.50
2018-03-22T14:45:00.382Z,7.60
2018-03-22T14:47:27.843Z,7.70
2018-03-22T14:49:56.100Z,7.90
2018-03-22T14:52:23.597Z,7.90
2018-03-22T14:54:51.905Z,8.20
2018-03-22T14:57:19.405Z,8.20
2018-03-22T14:59:47.638Z,8.30
2018-03-22T15:02:15.131Z,8.30
2018-03-22T15:04:42.618Z,8.50
2018-03-22T15:07:10.083Z,8.80
2018-03-22T15:09:37.591Z,8.80
2018-03-22T15:12:05.054Z,8.90
2018-03-22T15:14:33.524Z,9.00
2018-03-22T15:17:01.759Z,9.10
2018-03-22T15:19:29.240Z,9.10
2018-03-22T15:21:56.722Z,9.00
2018-03-22T15:24:24.278Z,9.00
2018-03-22T15:26:51.757Z,8.90
2018-03-22T15:29:19.995Z,8.80
2018-03-22T15:31:47.570Z,8.90
2018-03-22T15:34:15.038Z,8.80
2018-03-22T15:36:43.304Z,8.60
2018-03-22T15:39:11.535Z,8.50
2018-03-22T15:41:38.990Z,8.50
2018-03-22T15:44:06.472Z,8.50
2018-03-22T15:46:33.993Z,8.50
2018-03-22T15:49:01.459Z,8.50
2018-03-22T15:51:28.944Z,8.40
2018-03-22T15:53:56.406Z,8.50
2018-03-22T15:56:23.878Z,8.50
2018-03-22T15:58:51.479Z,8.50
2018-03-22T16:01:18.933Z,8.50
2018-03-22T16:03:46.390Z,8.40
2018-03-22T16:06:13.871Z,8.40
2018-03-22T16:08:41.330Z,8.40
2018-03-22T16:11:08.805Z,8.40
2018-03-22T16:13:36.274Z,8.30
2018-03-22T16:16:03.740Z,8.30
2018-03-22T16:18:32.043Z,8.20
2018-03-22T16:20:59.477Z,8.20
2018-03-22T16:23:27.725Z,8.10
2018-03-22T16:25:55.191Z,8.10
2018-03-22T16:28:23.443Z,8.20
2018-03-22T16:30:50.904Z,8.20
2018-03-22T16:33:18.412Z,8.10
2018-03-22T16:35:45.866Z,8.10
2018-03-22T16:38:13.327Z,8.10
2018-03-22T16:40:40.814Z,8.10
2018-03-22T16:43:08.279Z,8.10
2018-03-22T16:45:35.756Z,8.00
2018-03-22T16:48:03.237Z,8.00
2018-03-22T16:50:31.460Z,8.00
2018-03-22T16:53:00.021Z,7.90
2018-03-22T16:55:27.478Z,7.90
2018-03-22T16:57:54.954Z,7.90
2018-03-22T17:00:22.426Z,7.90
2018-03-22T17:02:49.889Z,7.80
2018-03-22T17:05:17.387Z,7.80
2018-03-22T17:07:45.623Z,7.70
2018-03-22T17:10:13.102Z,7.70
2018-03-22T17:12:41.366Z,7.60
2018-03-22T17:15:08.823Z,7.60
2018-03-22T17:17:36.286Z,7.60
2018-03-22T17:20:04.552Z,7.60
2018-03-22T17:22:32.016Z,7.60
2018-03-22T17:25:00.239Z,7.60
2018-03-22T17:27:27.940Z,7.50
2018-03-22T17:29:56.940Z,7.50
2018-03-22T17:32:24.390Z,7.50
2018-03-22T17:34:51.876Z,7.50
2018-03-22T17:37:20.111Z,7.50
2018-03-22T17:39:47.571Z,7.50
2018-03-22T17:42:15.059Z,7.50
2018-03-22T17:44:42.522Z,7.50
2018-03-22T17:47:10.012Z,7.50
2018-03-22T17:49:37.480Z,7.40
2018-03-22T17:52:05.315Z,7.40
2018-03-22T17:54:32.878Z,7.40
2018-03-22T17:57:00.369Z,7.40
2018-03-22T17:59:27.860Z,7.40
2018-03-22T18:01:56.110Z,7.30
2018-03-22T18:04:23.584Z,7.30
2018-03-22T18:06:51.832Z,7.30
2018-03-22T18:09:19.325Z,7.30
2018-03-22T18:11:47.559Z,7.20
2018-03-22T18:14:15.039Z,7.20
2018-03-22T18:16:43.273Z,7.20
2018-03-22T18:19:10.730Z,7.20
2018-03-22T18:21:38.227Z,7.20
2018-03-22T18:24:06.714Z,7.10
2018-03-22T18:26:34.188Z,7.10
2018-03-22T18:29:02.426Z,7.10
2018-03-22T18:31:29.941Z,7.10
2018-03-22T18:33:57.417Z,7.10
2018-03-22T18:36:24.958Z,7.10
2018-03-22T18:38:52.852Z,7.10
2018-03-22T18:41:20.315Z,7.10
2018-03-22T18:43:49.307Z,7.00
2018-03-22T18:46:16.778Z,7.00
2018-03-22T18:48:44.246Z,7.00
2018-03-22T18:51:12.529Z,7.00
2018-03-22T18:53:40.815Z,7.00
2018-03-22T18:56:08.431Z,7.00
2018-03-22T18:58:35.904Z,7.00
2018-03-22T19:01:03.401Z,7.00
2018-03-22T19:03:30.853Z,6.90
2018-03-22T19:05:58.444Z,7.00
2018-03-22T19:08:25.930Z,7.00
2018-03-22T19:10:53.412Z,7.00
2018-03-22T19:13:21.657Z,6.90
2018-03-22T19:15:49.155Z,6.90
2018-03-22T19:18:16.647Z,6.90
2018-03-22T19:20:44.115Z,6.90
2018-03-22T19:23:11.608Z,6.90
2018-03-22T19:25:39.969Z,6.90
2018-03-22T19:28:07.396Z,6.80
2018-03-22T19:30:34.972Z,6.90
2018-03-22T19:33:02.443Z,6.90
2018-03-22T19:35:29.914Z,6.80
2018-03-22T19:37:58.183Z,6.80
2018-03-22T19:40:25.655Z,6.80
2018-03-22T19:42:53.891Z,6.80
2018-03-22T19:45:21.371Z,6.70
2018-03-22T19:47:49.600Z,6.70
2018-03-22T19:50:17.145Z,6.70
2018-03-22T19:52:44.656Z,6.70
2018-03-22T19:55:12.896Z,6.70
2018-03-22T19:57:40.354Z,6.70
2018-03-22T20:00:07.852Z,6.70
2018-03-22T20:02:36.084Z,6.70
2018-03-22T20:05:03.624Z,6.70
2018-03-22T20:07:31.111Z,6.70
2018-03-22T20:09:58.552Z,6.70
2018-03-22T20:12:26.063Z,6.70
2018-03-22T20:14:54.333Z,6.70
2018-03-22T20:17:22.575Z,6.60
2018-03-22T20:19:50.275Z,6.60
2018-03-22T20:22:18.534Z,6.60
2018-03-22T20:24:46.772Z,6.60
2018-03-22T20:27:14.253Z,6.60
2018-03-22T20:29:41.723Z,6.60
2018-03-22T20:32:09.204Z,6.60
2018-03-22T20:34:36.678Z,6.60
2018-03-22T20:37:04.166Z,6.60
2018-03-22T20:39:31.666Z,6.50
2018-03-22T20:41:59.882Z,6.50
2018-03-22T20:44:28.103Z,6.40
2018-03-22T20:46:55.546Z,6.40
2018-03-22T20:49:27.934Z,6.40
2018-03-22T20:51:56.216Z,6.30
2018-03-22T20:54:25.835Z,6.30
2018-03-22T20:56:53.603Z,6.30
2018-03-22T20:59:22.068Z,6.30
2018-03-22T21:01:50.296Z,6.30
2018-03-22T21:04:17.775Z,6.30
2018-03-22T21:06:46.015Z,6.30
2018-03-22T21:09:13.495Z,6.30
2018-03-22T21:11:41.791Z,6.30
2018-03-22T21:14:10.117Z,6.30
2018-03-22T21:16:38.288Z,6.30
2018-03-22T21:19:06.568Z,6.30
2018-03-22T21:21:35.458Z,6.30
2018-03-22T21:24:03.460Z,6.30
2018-03-22T21:26:31.036Z,6.30
2018-03-22T21:28:59.279Z,6.20
2018-03-22T21:31:26.749Z,6.20
2018-03-22T21:33:55.990Z,6.20
2018-03-22T21:36:23.464Z,6.20
2018-03-22T21:38:50.931Z,6.30
2018-03-22T21:41:18.672Z,6.30
2018-03-22T21:43:58.024Z,6.30
2018-03-22T21:46:25.500Z,6.30
2018-03-22T21:48:52.967Z,6.30
2018-03-22T21:51:20.475Z,6.30
2018-03-22T21:53:47.930Z,6.30
2018-03-22T21:56:17.102Z,6.30
2018-03-22T21:58:46.805Z,6.20
2018-03-22T22:01:15.383Z,6.20
2018-03-22T22:03:43.532Z,6.20
2018-03-22T22:06:11.024Z,6.20
2018-03-22T22:08:39.271Z,6.20
2018-03-22T22:11:06.744Z,6.20
2018-03-22T22:13:35.047Z,6.20
2018-03-22T22:16:03.283Z,6.10
2018-03-22T22:18:32.623Z,6.10
2018-03-22T22:21:00.407Z,6.10
2018-03-22T22:23:27.889Z,6.10
2018-03-22T22:25:56.520Z,6.10
2018-03-22T22:28:24.826Z,6.10
2018-03-22T22:30:52.282Z,6.10
2018-03-22T22:33:19.762Z,6.10
2018-03-22T22:35:48.034Z,6.10
2018-03-22T22:38:15.502Z,6.10
2018-03-22T22:40:44.181Z,6.10
2018-03-22T22:43:12.611Z,6.10
2018-03-22T22:45:41.415Z,6.10
2018-03-22T22:48:08.885Z,6.10
2018-03-22T22:50:41.176Z,6.10
2018-03-22T22:53:08.638Z,6.10
2018-03-22T22:55:38.862Z,6.10
2018-03-22T22:58:07.953Z,6.10
2018-03-22T23:00:36.341Z,6.10
2018-03-22T23:03:04.013Z,6.10
2018-03-22T23:05:31.478Z,6.10
2018-03-22T23:07:59.720Z,6.00
2018-03-22T23:10:27.234Z,6.00
2018-03-22T23:12:54.695Z,6.00
2018-03-22T23:15:22.202Z,6.00
2018-03-22T23:17:49.681Z,6.00
2018-03-22T23:20:17.908Z,6.00
2018-03-22T23:22:45.454Z,6.00
2018-03-22T23:25:12.908Z,6.00
2018-03-22T23:27:40.378Z,6.00
2018-03-22T23:30:07.866Z,6.00
2018-03-22T23:32:35.334Z,6.00
2018-03-22T23:35:03.652Z,6.00
2018-03-22T23:37:31.136Z,6.00
2018-03-22T23:39:58.612Z,6.00
2018-03-22T23:42:26.084Z,6.00
2018-03-22T23:44:54.340Z,6.00
2018-03-22T23:47:21.811Z,6.00
2018-03-22T23:49:50.049Z,6.00
2018-03-22T23:52:17.538Z,6.00
2018-03-22T23:54:45.015Z,6.00
2018-03-22T23:57:13.240Z,6.00
2018-03-22T23:59:40.729Z,6.00
